sensor_id;sensor_type;location;lat;lon;timestamp;P1;durP1;ratioP1;P2;durP2;ratioP2
18526;SDS011;9393;42.158;24.748;2023-03-23T00:00:06;33.93;;;17.67;;
18526;SDS011;9393;42.158;24.748;2023-03-23T00:03:16;30.17;;;16.60;;
18526;SDS011;9393;42.158;24.748;2023-03-23T00:06:19;29.13;;;16.23;;
18526;SDS011;9393;42.158;24.748;2023-03-23T00:09:22;27.80;;;16.70;;
18526;SDS011;9393;42.158;24.748;2023-03-23T00:12:26;26.27;;;16.87;;
18526;SDS011;9393;42.158;24.748;2023-03-23T00:15:33;29.50;;;17.70;;
18526;SDS011;9393;42.158;24.748;2023-03-23T00:18:38;26.50;;;17.77;;
18526;SDS011;9393;42.158;24.748;2023-03-23T00:21:41;23.80;;;15.63;;
18526;SDS011;9393;42.158;24.748;2023-03-23T00:24:44;29.20;;;17.33;;
18526;SDS011;9393;42.158;24.748;2023-03-23T00:27:47;25.10;;;16.37;;
18526;SDS011;9393;42.158;24.748;2023-03-23T00:30:54;25.73;;;16.97;;
18526;SDS011;9393;42.158;24.748;2023-03-23T00:34:00;26.93;;;17.17;;
18526;SDS011;9393;42.158;24.748;2023-03-23T00:37:04;28.33;;;17.27;;
18526;SDS011;9393;42.158;24.748;2023-03-23T00:40:09;25.27;;;16.67;;
18526;SDS011;9393;42.158;24.748;2023-03-23T00:43:13;25.93;;;17.00;;
18526;SDS011;9393;42.158;24.748;2023-03-23T00:46:17;25.23;;;16.63;;
18526;SDS011;9393;42.158;24.748;2023-03-23T00:49:23;27.33;;;18.13;;
18526;SDS011;9393;42.158;24.748;2023-03-23T00:52:28;28.27;;;17.77;;
18526;SDS011;9393;42.158;24.748;2023-03-23T00:55:30;27.33;;;16.90;;
18526;SDS011;9393;42.158;24.748;2023-03-23T00:58:34;29.60;;;18.00;;
18526;SDS011;9393;42.158;24.748;2023-03-23T01:01:38;25.30;;;17.73;;
18526;SDS011;9393;42.158;24.748;2023-03-23T01:04:42;26.10;;;17.23;;
18526;SDS011;9393;42.158;24.748;2023-03-23T01:07:45;27.47;;;17.90;;
18526;SDS011;9393;42.158;24.748;2023-03-23T01:10:48;27.70;;;18.50;;
18526;SDS011;9393;42.158;24.748;2023-03-23T01:13:52;27.47;;;19.07;;
18526;SDS011;9393;42.158;24.748;2023-03-23T01:16:54;28.53;;;18.33;;
18526;SDS011;9393;42.158;24.748;2023-03-23T01:19:59;24.80;;;16.63;;
18526;SDS011;9393;42.158;24.748;2023-03-23T01:23:02;28.63;;;18.50;;
18526;SDS011;9393;42.158;24.748;2023-03-23T01:26:05;32.97;;;19.87;;
18526;SDS011;9393;42.158;24.748;2023-03-23T01:29:09;29.73;;;18.17;;
18526;SDS011;9393;42.158;24.748;2023-03-23T01:32:12;23.70;;;16.30;;
18526;SDS011;9393;42.158;24.748;2023-03-23T01:35:17;27.33;;;16.83;;
18526;SDS011;9393;42.158;24.748;2023-03-23T01:38:21;24.33;;;16.30;;
18526;SDS011;9393;42.158;24.748;2023-03-23T01:41:23;26.27;;;16.40;;
18526;SDS011;9393;42.158;24.748;2023-03-23T01:48:18;24.63;;;15.37;;
18526;SDS011;9393;42.158;24.748;2023-03-23T01:51:27;27.60;;;15.80;;
18526;SDS011;9393;42.158;24.748;2023-03-23T01:54:30;29.80;;;16.20;;
18526;SDS011;9393;42.158;24.748;2023-03-23T01:57:37;23.67;;;14.90;;
18526;SDS011;9393;42.158;24.748;2023-03-23T02:00:40;25.27;;;15.13;;
18526;SDS011;9393;42.158;24.748;2023-03-23T02:03:44;25.50;;;15.47;;
18526;SDS011;9393;42.158;24.748;2023-03-23T02:06:51;22.63;;;14.33;;
18526;SDS011;9393;42.158;24.748;2023-03-23T02:09:57;23.07;;;14.63;;
18526;SDS011;9393;42.158;24.748;2023-03-23T02:13:01;27.10;;;16.20;;
18526;SDS011;9393;42.158;24.748;2023-03-23T02:16:07;23.17;;;15.83;;
18526;SDS011;9393;42.158;24.748;2023-03-23T02:19:21;23.53;;;14.77;;
18526;SDS011;9393;42.158;24.748;2023-03-23T02:22:44;24.17;;;15.77;;
18526;SDS011;9393;42.158;24.748;2023-03-23T02:26:16;25.60;;;15.57;;
18526;SDS011;9393;42.158;24.748;2023-03-23T02:36:33;26.50;;;16.00;;
18526;SDS011;9393;42.158;24.748;2023-03-23T02:39:47;26.33;;;17.00;;
18526;SDS011;9393;42.158;24.748;2023-03-23T02:42:53;27.17;;;17.90;;
18526;SDS011;9393;42.158;24.748;2023-03-23T02:45:58;31.90;;;17.70;;
18526;SDS011;9393;42.158;24.748;2023-03-23T02:49:04;25.53;;;16.83;;
18526;SDS011;9393;42.158;24.748;2023-03-23T02:52:10;25.77;;;15.87;;
18526;SDS011;9393;42.158;24.748;2023-03-23T02:55:18;26.57;;;17.10;;
18526;SDS011;9393;42.158;24.748;2023-03-23T02:58:24;27.03;;;17.47;;
18526;SDS011;9393;42.158;24.748;2023-03-23T03:05:02;26.73;;;17.50;;
18526;SDS011;9393;42.158;24.748;2023-03-23T03:08:14;27.83;;;17.73;;
18526;SDS011;9393;42.158;24.748;2023-03-23T03:11:23;27.60;;;17.63;;
18526;SDS011;9393;42.158;24.748;2023-03-23T03:14:28;29.57;;;17.60;;
18526;SDS011;9393;42.158;24.748;2023-03-23T03:17:35;27.87;;;16.63;;
18526;SDS011;9393;42.158;24.748;2023-03-23T03:20:46;29.93;;;17.73;;
18526;SDS011;9393;42.158;24.748;2023-03-23T03:23:51;28.70;;;17.93;;
18526;SDS011;9393;42.158;24.748;2023-03-23T03:26:58;30.07;;;17.40;;
18526;SDS011;9393;42.158;24.748;2023-03-23T03:30:13;28.47;;;16.30;;
18526;SDS011;9393;42.158;24.748;2023-03-23T03:33:19;28.23;;;17.50;;
18526;SDS011;9393;42.158;24.748;2023-03-23T03:36:29;27.77;;;17.67;;
18526;SDS011;9393;42.158;24.748;2023-03-23T03:39:39;26.80;;;17.07;;
18526;SDS011;9393;42.158;24.748;2023-03-23T03:42:44;28.27;;;16.03;;
18526;SDS011;9393;42.158;24.748;2023-03-23T03:45:48;25.03;;;16.20;;
18526;SDS011;9393;42.158;24.748;2023-03-23T03:48:51;23.70;;;14.97;;
18526;SDS011;9393;42.158;24.748;2023-03-23T03:51:56;23.07;;;15.30;;
18526;SDS011;9393;42.158;24.748;2023-03-23T03:55:09;24.20;;;15.30;;
18526;SDS011;9393;42.158;24.748;2023-03-23T03:58:16;22.70;;;14.90;;
18526;SDS011;9393;42.158;24.748;2023-03-23T04:01:39;22.77;;;15.60;;
18526;SDS011;9393;42.158;24.748;2023-03-23T04:04:42;22.47;;;15.00;;
18526;SDS011;9393;42.158;24.748;2023-03-23T04:07:47;23.30;;;14.73;;
18526;SDS011;9393;42.158;24.748;2023-03-23T04:10:53;26.70;;;15.57;;
18526;SDS011;9393;42.158;24.748;2023-03-23T04:13:58;26.57;;;16.37;;
18526;SDS011;9393;42.158;24.748;2023-03-23T04:17:12;26.53;;;15.67;;
18526;SDS011;9393;42.158;24.748;2023-03-23T04:20:16;25.37;;;16.00;;
18526;SDS011;9393;42.158;24.748;2023-03-23T04:23:26;26.23;;;16.13;;
18526;SDS011;9393;42.158;24.748;2023-03-23T04:26:35;24.87;;;15.63;;
18526;SDS011;9393;42.158;24.748;2023-03-23T04:29:50;24.67;;;15.57;;
18526;SDS011;9393;42.158;24.748;2023-03-23T04:33:12;22.33;;;15.10;;
18526;SDS011;9393;42.158;24.748;2023-03-23T04:36:21;23.73;;;15.67;;
18526;SDS011;9393;42.158;24.748;2023-03-23T04:39:38;22.77;;;15.20;;
18526;SDS011;9393;42.158;24.748;2023-03-23T04:42:43;28.27;;;15.90;;
18526;SDS011;9393;42.158;24.748;2023-03-23T04:46:08;25.80;;;16.13;;
18526;SDS011;9393;42.158;24.748;2023-03-23T04:49:12;25.77;;;16.53;;
18526;SDS011;9393;42.158;24.748;2023-03-23T04:52:24;27.00;;;17.10;;
18526;SDS011;9393;42.158;24.748;2023-03-23T04:55:32;24.90;;;15.67;;
18526;SDS011;9393;42.158;24.748;2023-03-23T04:58:42;29.43;;;16.00;;
18526;SDS011;9393;42.158;24.748;2023-03-23T05:01:48;25.07;;;15.93;;
18526;SDS011;9393;42.158;24.748;2023-03-23T05:04:56;27.17;;;15.60;;
18526;SDS011;9393;42.158;24.748;2023-03-23T05:08:03;29.00;;;18.23;;
18526;SDS011;9393;42.158;24.748;2023-03-23T05:11:11;32.27;;;16.43;;
18526;SDS011;9393;42.158;24.748;2023-03-23T05:14:16;31.03;;;18.43;;
18526;SDS011;9393;42.158;24.748;2023-03-23T05:17:28;26.40;;;17.40;;
18526;SDS011;9393;42.158;24.748;2023-03-23T05:20:34;28.53;;;17.17;;
18526;SDS011;9393;42.158;24.748;2023-03-23T05:23:40;29.43;;;17.83;;
18526;SDS011;9393;42.158;24.748;2023-03-23T05:26:53;28.43;;;18.13;;
18526;SDS011;9393;42.158;24.748;2023-03-23T05:30:04;29.70;;;17.83;;
18526;SDS011;9393;42.158;24.748;2023-03-23T05:33:12;30.60;;;18.53;;
18526;SDS011;9393;42.158;24.748;2023-03-23T05:36:20;29.50;;;17.30;;
18526;SDS011;9393;42.158;24.748;2023-03-23T05:39:56;27.67;;;17.60;;
18526;SDS011;9393;42.158;24.748;2023-03-23T05:43:20;31.17;;;17.77;;
18526;SDS011;9393;42.158;24.748;2023-03-23T05:46:41;39.47;;;19.77;;
18526;SDS011;9393;42.158;24.748;2023-03-23T05:49:44;39.30;;;21.47;;
18526;SDS011;9393;42.158;24.748;2023-03-23T05:52:51;39.03;;;22.23;;
18526;SDS011;9393;42.158;24.748;2023-03-23T05:55:57;39.47;;;21.13;;
18526;SDS011;9393;42.158;24.748;2023-03-23T05:59:21;46.77;;;25.90;;
18526;SDS011;9393;42.158;24.748;2023-03-23T06:02:27;39.30;;;20.97;;
18526;SDS011;9393;42.158;24.748;2023-03-23T06:05:31;38.83;;;20.63;;
18526;SDS011;9393;42.158;24.748;2023-03-23T06:08:34;35.27;;;20.67;;
18526;SDS011;9393;42.158;24.748;2023-03-23T06:11:38;33.10;;;19.20;;
18526;SDS011;9393;42.158;24.748;2023-03-23T06:15:01;34.90;;;20.17;;
18526;SDS011;9393;42.158;24.748;2023-03-23T06:18:33;33.83;;;19.60;;
18526;SDS011;9393;42.158;24.748;2023-03-23T06:21:47;39.27;;;20.30;;
18526;SDS011;9393;42.158;24.748;2023-03-23T06:24:58;38.57;;;20.17;;
18526;SDS011;9393;42.158;24.748;2023-03-23T06:28:08;37.60;;;21.27;;
18526;SDS011;9393;42.158;24.748;2023-03-23T06:31:17;40.00;;;20.73;;
18526;SDS011;9393;42.158;24.748;2023-03-23T06:34:23;35.57;;;20.93;;
18526;SDS011;9393;42.158;24.748;2023-03-23T06:37:44;51.80;;;25.93;;
18526;SDS011;9393;42.158;24.748;2023-03-23T06:41:04;42.57;;;23.27;;
18526;SDS011;9393;42.158;24.748;2023-03-23T06:44:07;34.90;;;20.37;;
18526;SDS011;9393;42.158;24.748;2023-03-23T06:47:16;40.00;;;21.03;;
18526;SDS011;9393;42.158;24.748;2023-03-23T06:50:21;31.33;;;19.43;;
18526;SDS011;9393;42.158;24.748;2023-03-23T06:53:25;33.03;;;19.97;;
18526;SDS011;9393;42.158;24.748;2023-03-23T06:56:30;45.47;;;20.50;;
18526;SDS011;9393;42.158;24.748;2023-03-23T06:59:33;44.20;;;20.30;;
18526;SDS011;9393;42.158;24.748;2023-03-23T07:02:38;38.60;;;22.33;;
18526;SDS011;9393;42.158;24.748;2023-03-23T07:05:42;37.97;;;22.00;;
18526;SDS011;9393;42.158;24.748;2023-03-23T07:08:50;35.67;;;19.93;;
18526;SDS011;9393;42.158;24.748;2023-03-23T07:11:57;33.13;;;20.10;;
18526;SDS011;9393;42.158;24.748;2023-03-23T07:15:08;31.53;;;19.07;;
18526;SDS011;9393;42.158;24.748;2023-03-23T07:18:17;34.03;;;20.00;;
18526;SDS011;9393;42.158;24.748;2023-03-23T07:21:23;33.80;;;20.60;;
18526;SDS011;9393;42.158;24.748;2023-03-23T07:24:25;29.53;;;18.13;;
18526;SDS011;9393;42.158;24.748;2023-03-23T07:27:47;28.57;;;17.47;;
18526;SDS011;9393;42.158;24.748;2023-03-23T07:30:51;35.43;;;18.37;;
18526;SDS011;9393;42.158;24.748;2023-03-23T07:33:56;31.50;;;19.67;;
18526;SDS011;9393;42.158;24.748;2023-03-23T07:37:10;31.57;;;19.33;;
18526;SDS011;9393;42.158;24.748;2023-03-23T07:40:16;33.23;;;20.03;;
18526;SDS011;9393;42.158;24.748;2023-03-23T07:43:24;26.40;;;18.53;;
18526;SDS011;9393;42.158;24.748;2023-03-23T07:46:39;33.07;;;16.63;;
18526;SDS011;9393;42.158;24.748;2023-03-23T07:49:52;23.87;;;13.80;;
18526;SDS011;9393;42.158;24.748;2023-03-23T07:53:00;28.83;;;16.53;;
18526;SDS011;9393;42.158;24.748;2023-03-23T07:56:06;36.80;;;18.53;;
18526;SDS011;9393;42.158;24.748;2023-03-23T07:59:28;31.07;;;16.70;;
18526;SDS011;9393;42.158;24.748;2023-03-23T08:02:33;27.33;;;16.83;;
18526;SDS011;9393;42.158;24.748;2023-03-23T08:05:58;28.67;;;16.17;;
18526;SDS011;9393;42.158;24.748;2023-03-23T08:09:01;20.50;;;15.10;;
18526;SDS011;9393;42.158;24.748;2023-03-23T08:12:37;19.40;;;12.80;;
18526;SDS011;9393;42.158;24.748;2023-03-23T08:15:50;17.63;;;12.10;;
18526;SDS011;9393;42.158;24.748;2023-03-23T08:18:53;15.50;;;11.30;;
18526;SDS011;9393;42.158;24.748;2023-03-23T08:22:11;17.30;;;11.20;;
18526;SDS011;9393;42.158;24.748;2023-03-23T08:25:37;18.03;;;12.00;;
18526;SDS011;9393;42.158;24.748;2023-03-23T08:28:51;18.30;;;11.70;;
18526;SDS011;9393;42.158;24.748;2023-03-23T08:32:13;15.13;;;11.33;;
18526;SDS011;9393;42.158;24.748;2023-03-23T08:35:17;13.23;;;10.07;;
18526;SDS011;9393;42.158;24.748;2023-03-23T08:38:40;17.60;;;11.50;;
18526;SDS011;9393;42.158;24.748;2023-03-23T08:42:04;15.77;;;11.17;;
18526;SDS011;9393;42.158;24.748;2023-03-23T08:45:31;15.00;;;11.07;;
18526;SDS011;9393;42.158;24.748;2023-03-23T08:48:37;14.90;;;10.20;;
18526;SDS011;9393;42.158;24.748;2023-03-23T08:52:03;14.33;;;9.77;;
18526;SDS011;9393;42.158;24.748;2023-03-23T08:55:30;15.10;;;10.20;;
18526;SDS011;9393;42.158;24.748;2023-03-23T08:58:57;12.73;;;9.47;;
18526;SDS011;9393;42.158;24.748;2023-03-23T09:02:20;14.07;;;10.10;;
18526;SDS011;9393;42.158;24.748;2023-03-23T09:05:37;12.50;;;10.00;;
18526;SDS011;9393;42.158;24.748;2023-03-23T09:09:12;12.63;;;9.77;;
18526;SDS011;9393;42.158;24.748;2023-03-23T09:12:16;13.70;;;10.10;;
18526;SDS011;9393;42.158;24.748;2023-03-23T09:15:19;14.40;;;9.50;;
18526;SDS011;9393;42.158;24.748;2023-03-23T09:18:23;13.23;;;9.57;;
18526;SDS011;9393;42.158;24.748;2023-03-23T09:21:26;13.90;;;10.33;;
18526;SDS011;9393;42.158;24.748;2023-03-23T09:24:29;14.73;;;9.77;;
18526;SDS011;9393;42.158;24.748;2023-03-23T09:27:34;15.40;;;10.40;;
18526;SDS011;9393;42.158;24.748;2023-03-23T09:30:40;11.10;;;8.63;;
18526;SDS011;9393;42.158;24.748;2023-03-23T09:33:44;10.13;;;7.80;;
18526;SDS011;9393;42.158;24.748;2023-03-23T09:36:47;8.87;;;7.13;;
18526;SDS011;9393;42.158;24.748;2023-03-23T09:39:50;9.70;;;7.60;;
18526;SDS011;9393;42.158;24.748;2023-03-23T09:42:59;13.00;;;6.77;;
18526;SDS011;9393;42.158;24.748;2023-03-23T09:46:17;9.27;;;6.90;;
18526;SDS011;9393;42.158;24.748;2023-03-23T09:49:28;12.43;;;7.43;;
18526;SDS011;9393;42.158;24.748;2023-03-23T09:52:36;11.60;;;8.20;;
18526;SDS011;9393;42.158;24.748;2023-03-23T09:55:44;10.67;;;7.67;;
18526;SDS011;9393;42.158;24.748;2023-03-23T09:58:51;10.97;;;8.03;;
18526;SDS011;9393;42.158;24.748;2023-03-23T10:01:58;10.93;;;8.97;;
18526;SDS011;9393;42.158;24.748;2023-03-23T10:08:34;10.17;;;7.23;;
18526;SDS011;9393;42.158;24.748;2023-03-23T10:11:40;13.17;;;8.07;;
18526;SDS011;9393;42.158;24.748;2023-03-23T10:14:55;11.63;;;8.10;;
18526;SDS011;9393;42.158;24.748;2023-03-23T10:18:17;7.97;;;5.63;;
18526;SDS011;9393;42.158;24.748;2023-03-23T10:21:25;8.18;;;5.35;;
18526;SDS011;9393;42.158;24.748;2023-03-23T10:24:31;6.82;;;5.50;;
18526;SDS011;9393;42.158;24.748;2023-03-23T10:27:38;6.28;;;5.22;;
18526;SDS011;9393;42.158;24.748;2023-03-23T10:30:50;6.70;;;5.22;;
18526;SDS011;9393;42.158;24.748;2023-03-23T10:33:57;5.90;;;4.45;;
18526;SDS011;9393;42.158;24.748;2023-03-23T10:37:08;7.30;;;4.78;;
18526;SDS011;9393;42.158;24.748;2023-03-23T10:40:17;8.70;;;5.00;;
18526;SDS011;9393;42.158;24.748;2023-03-23T10:43:24;6.30;;;5.05;;
18526;SDS011;9393;42.158;24.748;2023-03-23T10:46:31;9.70;;;7.20;;
18526;SDS011;9393;42.158;24.748;2023-03-23T10:49:42;10.60;;;7.78;;
18526;SDS011;9393;42.158;24.748;2023-03-23T10:52:48;10.15;;;6.70;;
18526;SDS011;9393;42.158;24.748;2023-03-23T10:55:52;9.73;;;6.45;;
18526;SDS011;9393;42.158;24.748;2023-03-23T10:58:56;9.00;;;6.15;;
18526;SDS011;9393;42.158;24.748;2023-03-23T11:02:02;7.25;;;5.68;;
18526;SDS011;9393;42.158;24.748;2023-03-23T11:05:15;7.60;;;5.78;;
18526;SDS011;9393;42.158;24.748;2023-03-23T11:08:22;8.50;;;6.28;;
18526;SDS011;9393;42.158;24.748;2023-03-23T11:11:28;7.22;;;6.07;;
18526;SDS011;9393;42.158;24.748;2023-03-23T11:14:32;7.07;;;5.85;;
18526;SDS011;9393;42.158;24.748;2023-03-23T11:17:41;7.60;;;5.38;;
18526;SDS011;9393;42.158;24.748;2023-03-23T11:20:44;7.70;;;4.32;;
18526;SDS011;9393;42.158;24.748;2023-03-23T11:23:50;4.90;;;4.00;;
18526;SDS011;9393;42.158;24.748;2023-03-23T11:26:55;6.03;;;4.30;;
18526;SDS011;9393;42.158;24.748;2023-03-23T11:30:01;6.27;;;4.50;;
18526;SDS011;9393;42.158;24.748;2023-03-23T11:33:12;7.13;;;4.80;;
18526;SDS011;9393;42.158;24.748;2023-03-23T11:36:16;5.77;;;4.17;;
18526;SDS011;9393;42.158;24.748;2023-03-23T11:39:21;5.00;;;4.10;;
18526;SDS011;9393;42.158;24.748;2023-03-23T11:42:26;4.73;;;4.00;;
18526;SDS011;9393;42.158;24.748;2023-03-23T11:45:38;5.50;;;4.50;;
18526;SDS011;9393;42.158;24.748;2023-03-23T11:48:44;7.73;;;6.23;;
18526;SDS011;9393;42.158;24.748;2023-03-23T11:51:54;12.00;;;7.70;;
18526;SDS011;9393;42.158;24.748;2023-03-23T11:55:01;10.53;;;7.53;;
18526;SDS011;9393;42.158;24.748;2023-03-23T11:58:11;14.30;;;8.23;;
18526;SDS011;9393;42.158;24.748;2023-03-23T12:01:19;12.73;;;8.67;;
18526;SDS011;9393;42.158;24.748;2023-03-23T12:04:37;13.73;;;8.88;;
18526;SDS011;9393;42.158;24.748;2023-03-23T12:07:52;12.90;;;8.70;;
18526;SDS011;9393;42.158;24.748;2023-03-23T12:11:02;13.87;;;8.53;;
18526;SDS011;9393;42.158;24.748;2023-03-23T12:14:16;10.10;;;7.90;;
18526;SDS011;9393;42.158;24.748;2023-03-23T12:17:25;12.00;;;7.63;;
18526;SDS011;9393;42.158;24.748;2023-03-23T12:20:40;11.57;;;8.10;;
18526;SDS011;9393;42.158;24.748;2023-03-23T12:23:56;12.40;;;7.23;;
18526;SDS011;9393;42.158;24.748;2023-03-23T12:27:09;9.13;;;6.63;;
18526;SDS011;9393;42.158;24.748;2023-03-23T12:30:30;11.57;;;7.33;;
18526;SDS011;9393;42.158;24.748;2023-03-23T12:33:40;8.23;;;6.60;;
18526;SDS011;9393;42.158;24.748;2023-03-23T12:36:56;10.30;;;7.10;;
18526;SDS011;9393;42.158;24.748;2023-03-23T12:43:36;12.17;;;6.90;;
18526;SDS011;9393;42.158;24.748;2023-03-23T12:46:54;11.03;;;6.07;;
18526;SDS011;9393;42.158;24.748;2023-03-23T12:50:09;8.80;;;6.87;;
18526;SDS011;9393;42.158;24.748;2023-03-23T12:53:20;11.53;;;6.87;;
18526;SDS011;9393;42.158;24.748;2023-03-23T12:56:28;7.20;;;5.50;;
18526;SDS011;9393;42.158;24.748;2023-03-23T12:59:36;7.53;;;5.40;;
18526;SDS011;9393;42.158;24.748;2023-03-23T13:02:44;6.90;;;5.53;;
18526;SDS011;9393;42.158;24.748;2023-03-23T13:05:56;7.60;;;5.53;;
18526;SDS011;9393;42.158;24.748;2023-03-23T13:09:07;9.33;;;5.80;;
18526;SDS011;9393;42.158;24.748;2023-03-23T13:12:16;5.80;;;4.90;;
18526;SDS011;9393;42.158;24.748;2023-03-23T13:15:24;7.57;;;4.33;;
18526;SDS011;9393;42.158;24.748;2023-03-23T13:18:37;5.57;;;4.40;;
18526;SDS011;9393;42.158;24.748;2023-03-23T13:21:48;6.03;;;4.80;;
18526;SDS011;9393;42.158;24.748;2023-03-23T13:25:00;4.87;;;3.97;;
18526;SDS011;9393;42.158;24.748;2023-03-23T13:28:12;7.43;;;3.90;;
18526;SDS011;9393;42.158;24.748;2023-03-23T13:31:17;5.77;;;4.13;;
18526;SDS011;9393;42.158;24.748;2023-03-23T13:34:28;4.07;;;3.60;;
18526;SDS011;9393;42.158;24.748;2023-03-23T13:37:32;7.87;;;4.00;;
18526;SDS011;9393;42.158;24.748;2023-03-23T13:40:40;7.90;;;4.10;;
18526;SDS011;9393;42.158;24.748;2023-03-23T13:43:45;5.97;;;3.83;;
18526;SDS011;9393;42.158;24.748;2023-03-23T13:46:56;5.07;;;3.77;;
18526;SDS011;9393;42.158;24.748;2023-03-23T13:50:11;5.17;;;4.47;;
18526;SDS011;9393;42.158;24.748;2023-03-23T13:53:21;7.97;;;4.73;;
18526;SDS011;9393;42.158;24.748;2023-03-23T13:56:35;6.30;;;4.22;;
18526;SDS011;9393;42.158;24.748;2023-03-23T13:59:46;5.70;;;4.38;;
18526;SDS011;9393;42.158;24.748;2023-03-23T14:02:50;5.83;;;4.70;;
18526;SDS011;9393;42.158;24.748;2023-03-23T14:06:01;5.47;;;4.20;;
18526;SDS011;9393;42.158;24.748;2023-03-23T14:09:24;5.40;;;3.92;;
18526;SDS011;9393;42.158;24.748;2023-03-23T14:12:32;5.10;;;3.90;;
18526;SDS011;9393;42.158;24.748;2023-03-23T14:15:40;5.40;;;4.00;;
18526;SDS011;9393;42.158;24.748;2023-03-23T14:18:50;5.22;;;4.13;;
18526;SDS011;9393;42.158;24.748;2023-03-23T14:21:56;8.47;;;4.10;;
18526;SDS011;9393;42.158;24.748;2023-03-23T14:24:59;5.00;;;3.90;;
18526;SDS011;9393;42.158;24.748;2023-03-23T14:28:17;7.90;;;4.50;;
18526;SDS011;9393;42.158;24.748;2023-03-23T14:31:26;5.20;;;3.53;;
18526;SDS011;9393;42.158;24.748;2023-03-23T14:34:30;6.33;;;3.70;;
18526;SDS011;9393;42.158;24.748;2023-03-23T14:37:34;4.73;;;3.93;;
18526;SDS011;9393;42.158;24.748;2023-03-23T14:40:37;5.47;;;4.10;;
18526;SDS011;9393;42.158;24.748;2023-03-23T14:43:42;6.87;;;4.27;;
18526;SDS011;9393;42.158;24.748;2023-03-23T14:46:45;5.77;;;4.17;;
18526;SDS011;9393;42.158;24.748;2023-03-23T14:49:51;5.13;;;4.10;;
18526;SDS011;9393;42.158;24.748;2023-03-23T14:53:00;6.50;;;4.57;;
18526;SDS011;9393;42.158;24.748;2023-03-23T14:56:09;6.03;;;4.47;;
18526;SDS011;9393;42.158;24.748;2023-03-23T14:59:16;7.43;;;4.07;;
18526;SDS011;9393;42.158;24.748;2023-03-23T15:02:20;5.33;;;3.80;;
18526;SDS011;9393;42.158;24.748;2023-03-23T15:05:28;4.73;;;3.97;;
18526;SDS011;9393;42.158;24.748;2023-03-23T15:08:33;4.77;;;3.63;;
18526;SDS011;9393;42.158;24.748;2023-03-23T15:11:38;8.23;;;4.17;;
18526;SDS011;9393;42.158;24.748;2023-03-23T15:14:44;7.77;;;4.90;;
18526;SDS011;9393;42.158;24.748;2023-03-23T15:17:49;5.17;;;4.17;;
18526;SDS011;9393;42.158;24.748;2023-03-23T15:20:52;7.30;;;4.10;;
18526;SDS011;9393;42.158;24.748;2023-03-23T15:23:55;6.93;;;4.17;;
18526;SDS011;9393;42.158;24.748;2023-03-23T15:27:12;5.87;;;4.03;;
18526;SDS011;9393;42.158;24.748;2023-03-23T15:30:31;6.30;;;4.33;;
18526;SDS011;9393;42.158;24.748;2023-03-23T15:33:35;5.67;;;4.27;;
18526;SDS011;9393;42.158;24.748;2023-03-23T15:36:39;6.33;;;4.63;;
18526;SDS011;9393;42.158;24.748;2023-03-23T15:39:44;5.90;;;4.23;;
18526;SDS011;9393;42.158;24.748;2023-03-23T15:42:48;6.17;;;4.50;;
18526;SDS011;9393;42.158;24.748;2023-03-23T15:45:57;5.37;;;4.20;;
18526;SDS011;9393;42.158;24.748;2023-03-23T15:49:07;5.67;;;4.30;;
18526;SDS011;9393;42.158;24.748;2023-03-23T15:52:14;13.40;;;4.70;;
18526;SDS011;9393;42.158;24.748;2023-03-23T15:55:22;6.90;;;4.37;;
18526;SDS011;9393;42.158;24.748;2023-03-23T15:58:27;7.23;;;4.90;;
18526;SDS011;9393;42.158;24.748;2023-03-23T16:01:33;9.70;;;4.47;;
18526;SDS011;9393;42.158;24.748;2023-03-23T16:04:39;6.07;;;5.23;;
18526;SDS011;9393;42.158;24.748;2023-03-23T16:07:48;6.03;;;4.77;;
18526;SDS011;9393;42.158;24.748;2023-03-23T16:10:53;9.60;;;5.00;;
18526;SDS011;9393;42.158;24.748;2023-03-23T16:13:57;8.17;;;4.67;;
18526;SDS011;9393;42.158;24.748;2023-03-23T16:17:03;7.03;;;4.33;;
18526;SDS011;9393;42.158;24.748;2023-03-23T16:20:12;10.27;;;6.00;;
18526;SDS011;9393;42.158;24.748;2023-03-23T16:23:18;8.10;;;4.93;;
18526;SDS011;9393;42.158;24.748;2023-03-23T16:26:22;9.37;;;5.50;;
18526;SDS011;9393;42.158;24.748;2023-03-23T16:29:26;8.77;;;5.77;;
18526;SDS011;9393;42.158;24.748;2023-03-23T16:32:36;8.73;;;5.70;;
18526;SDS011;9393;42.158;24.748;2023-03-23T16:35:39;8.27;;;5.67;;
18526;SDS011;9393;42.158;24.748;2023-03-23T16:38:45;7.43;;;5.90;;
18526;SDS011;9393;42.158;24.748;2023-03-23T16:41:50;7.43;;;6.10;;
18526;SDS011;9393;42.158;24.748;2023-03-23T16:44:54;8.70;;;6.10;;
18526;SDS011;9393;42.158;24.748;2023-03-23T16:48:00;9.60;;;6.00;;
18526;SDS011;9393;42.158;24.748;2023-03-23T16:51:04;10.30;;;6.50;;
18526;SDS011;9393;42.158;24.748;2023-03-23T16:54:08;9.27;;;7.10;;
18526;SDS011;9393;42.158;24.748;2023-03-23T16:57:12;11.53;;;8.13;;
18526;SDS011;9393;42.158;24.748;2023-03-23T17:00:17;11.83;;;8.17;;
18526;SDS011;9393;42.158;24.748;2023-03-23T17:03:24;13.90;;;7.73;;
18526;SDS011;9393;42.158;24.748;2023-03-23T17:06:29;11.90;;;7.23;;
18526;SDS011;9393;42.158;24.748;2023-03-23T17:09:33;9.70;;;7.63;;
18526;SDS011;9393;42.158;24.748;2023-03-23T17:12:37;12.87;;;7.90;;
18526;SDS011;9393;42.158;24.748;2023-03-23T17:15:42;10.23;;;7.10;;
18526;SDS011;9393;42.158;24.748;2023-03-23T17:18:50;11.67;;;7.93;;
18526;SDS011;9393;42.158;24.748;2023-03-23T17:21:54;10.70;;;7.47;;
18526;SDS011;9393;42.158;24.748;2023-03-23T17:24:58;12.80;;;7.33;;
18526;SDS011;9393;42.158;24.748;2023-03-23T17:28:03;9.63;;;7.00;;
18526;SDS011;9393;42.158;24.748;2023-03-23T17:31:08;12.27;;;8.20;;
18526;SDS011;9393;42.158;24.748;2023-03-23T17:34:13;12.80;;;8.73;;
18526;SDS011;9393;42.158;24.748;2023-03-23T17:37:20;10.80;;;8.13;;
18526;SDS011;9393;42.158;24.748;2023-03-23T17:40:24;15.37;;;8.77;;
18526;SDS011;9393;42.158;24.748;2023-03-23T17:43:28;13.87;;;8.53;;
18526;SDS011;9393;42.158;24.748;2023-03-23T17:46:33;13.50;;;8.70;;
18526;SDS011;9393;42.158;24.748;2023-03-23T17:49:38;14.63;;;8.27;;
18526;SDS011;9393;42.158;24.748;2023-03-23T17:52:43;14.17;;;8.73;;
18526;SDS011;9393;42.158;24.748;2023-03-23T17:55:47;11.80;;;8.20;;
18526;SDS011;9393;42.158;24.748;2023-03-23T17:58:51;12.80;;;8.93;;
18526;SDS011;9393;42.158;24.748;2023-03-23T18:01:55;10.87;;;7.83;;
18526;SDS011;9393;42.158;24.748;2023-03-23T18:05:01;15.67;;;9.40;;
18526;SDS011;9393;42.158;24.748;2023-03-23T18:08:05;12.73;;;8.90;;
18526;SDS011;9393;42.158;24.748;2023-03-23T18:11:10;14.70;;;9.40;;
18526;SDS011;9393;42.158;24.748;2023-03-23T18:14:14;13.97;;;8.87;;
18526;SDS011;9393;42.158;24.748;2023-03-23T18:17:18;15.10;;;9.70;;
18526;SDS011;9393;42.158;24.748;2023-03-23T18:20:24;14.37;;;10.00;;
18526;SDS011;9393;42.158;24.748;2023-03-23T18:23:29;15.53;;;9.77;;
18526;SDS011;9393;42.158;24.748;2023-03-23T18:26:43;14.70;;;10.30;;
18526;SDS011;9393;42.158;24.748;2023-03-23T18:29:48;15.33;;;9.83;;
18526;SDS011;9393;42.158;24.748;2023-03-23T18:32:52;15.57;;;11.07;;
18526;SDS011;9393;42.158;24.748;2023-03-23T18:35:58;19.20;;;12.83;;
18526;SDS011;9393;42.158;24.748;2023-03-23T18:39:03;19.83;;;13.23;;
18526;SDS011;9393;42.158;24.748;2023-03-23T18:42:10;22.53;;;14.13;;
18526;SDS011;9393;42.158;24.748;2023-03-23T18:45:14;18.57;;;13.83;;
18526;SDS011;9393;42.158;24.748;2023-03-23T18:48:18;21.17;;;13.63;;
18526;SDS011;9393;42.158;24.748;2023-03-23T18:51:24;18.77;;;11.30;;
18526;SDS011;9393;42.158;24.748;2023-03-23T18:54:28;20.20;;;11.83;;